createdAt,value
2023-05-24T00:01:27.237Z,7.67
2023-05-24T00:06:29.181Z,7.73
2023-05-24T00:11:30.978Z,7.69
2023-05-24T00:16:32.923Z,7.67
2023-05-24T00:21:36.764Z,7.59
2023-05-24T00:26:38.427Z,7.58
2023-05-24T00:31:40.317Z,7.56
2023-05-24T00:36:42.025Z,7.54
2023-05-24T00:41:43.787Z,7.48
2023-05-24T00:46:45.560Z,7.51
2023-05-24T00:51:48.491Z,7.52
2023-05-24T00:56:50.391Z,7.46
2023-05-24T01:01:52.435Z,7.43
2023-05-24T01:07:20.453Z,7.35
2023-05-24T01:12:25.229Z,7.32
2023-05-24T01:17:33.223Z,7.26
2023-05-24T01:23:03.275Z,7.24
2023-05-24T01:28:08.182Z,7.23
2023-05-24T01:33:10.012Z,7.22
2023-05-24T01:38:12.218Z,7.17
2023-05-24T01:43:29.081Z,7.16
2023-05-24T01:48:46.003Z,7.07
2023-05-24T01:53:50.040Z,6.95
2023-05-24T01:58:54.724Z,6.91
2023-05-24T02:03:56.496Z,6.85
2023-05-24T02:08:58.182Z,6.74
2023-05-24T02:13:59.915Z,6.65
2023-05-24T02:19:01.610Z,6.52
2023-05-24T02:24:03.286Z,6.46
2023-05-24T02:29:05.206Z,6.35
2023-05-24T02:34:07.681Z,6.33
2023-05-24T02:39:09.784Z,6.33
2023-05-24T02:44:12.044Z,6.33
2023-05-24T02:49:13.892Z,6.36
2023-05-24T02:54:17.694Z,6.33
2023-05-24T02:59:19.501Z,6.29
2023-05-24T03:04:23.129Z,6.22
2023-05-24T03:09:24.869Z,6.14
2023-05-24T03:14:26.609Z,6.20
2023-05-24T03:19:28.394Z,6.23
2023-05-24T03:24:33.526Z,6.20
2023-05-24T03:29:35.501Z,6.20
2023-05-24T03:34:37.244Z,6.29
2023-05-24T03:39:38.966Z,6.44
2023-05-24T03:44:55.851Z,6.46
2023-05-24T03:49:58.153Z,6.56
2023-05-24T03:54:59.884Z,6.62
2023-05-24T04:00:01.737Z,6.69
2023-05-24T04:05:04.689Z,6.69
2023-05-24T04:10:09.781Z,6.78
2023-05-24T04:15:17.787Z,6.87
2023-05-24T04:20:19.612Z,6.92
2023-05-24T04:25:21.413Z,6.90
2023-05-24T04:30:23.129Z,6.93
2023-05-24T04:35:25.646Z,7.05
2023-05-24T04:40:28.504Z,7.19
2023-05-24T04:45:30.862Z,7.31
2023-05-24T04:50:32.574Z,7.44
2023-05-24T04:55:34.305Z,7.52
2023-05-24T05:00:36.067Z,7.60
2023-05-24T05:05:38.072Z,7.72
2023-05-24T05:10:39.816Z,7.90
2023-05-24T05:15:42.865Z,7.98
2023-05-24T05:20:45.038Z,8.14
2023-05-24T05:25:47.086Z,8.19
2023-05-24T05:30:48.924Z,8.11
2023-05-24T05:35:52.327Z,8.13
2023-05-24T05:40:55.986Z,8.27
2023-05-24T05:45:57.757Z,8.39
2023-05-24T05:50:59.445Z,8.47
2023-05-24T05:56:01.203Z,8.45
2023-05-24T06:01:02.881Z,8.84
2023-05-24T06:06:04.805Z,8.86
2023-05-24T06:11:06.662Z,8.88
2023-05-24T06:16:08.656Z,8.61
2023-05-24T06:21:10.752Z,8.82
2023-05-24T06:26:12.484Z,8.94
2023-05-24T06:31:14.168Z,8.77
2023-05-24T06:36:15.850Z,8.86
2023-05-24T06:41:17.886Z,8.91
2023-05-24T06:46:19.555Z,8.65
2023-05-24T06:51:21.869Z,8.62
2023-05-24T06:56:23.527Z,8.85
2023-05-24T07:01:25.245Z,8.85
2023-05-24T07:06:27.206Z,8.84
2023-05-24T07:11:28.925Z,8.99
2023-05-24T07:16:30.606Z,9.23
2023-05-24T07:21:32.302Z,9.27
2023-05-24T07:26:34.289Z,8.79
2023-05-24T07:31:36.940Z,8.85
2023-05-24T07:36:38.644Z,9.05
2023-05-24T07:41:40.386Z,9.38
2023-05-24T07:46:42.247Z,9.63
2023-05-24T07:51:43.990Z,10.09
2023-05-24T07:56:45.668Z,10.77
2023-05-24T08:01:47.829Z,11.07
2023-05-24T08:06:49.559Z,11.11
2023-05-24T08:11:51.281Z,10.95
2023-05-24T08:16:53.038Z,10.90
2023-05-24T08:21:56.839Z,11.28
2023-05-24T08:26:58.984Z,12.08
2023-05-24T08:32:01.127Z,12.33
2023-05-24T08:37:03.317Z,11.38
2023-05-24T08:42:09.274Z,11.42
2023-05-24T08:47:13.895Z,11.85
2023-05-24T08:52:16.390Z,11.76
2023-05-24T08:57:19.081Z,11.89
2023-05-24T09:02:20.885Z,11.94
2023-05-24T09:07:25.810Z,11.92
2023-05-24T09:12:37.482Z,12.23
2023-05-24T09:17:40.796Z,12.04
2023-05-24T09:22:43.199Z,11.84
2023-05-24T09:27:50.889Z,11.61
2023-05-24T09:33:00.352Z,12.18
2023-05-24T09:38:02.143Z,12.32
2023-05-24T09:43:09.632Z,13.08
2023-05-24T09:48:16.545Z,13.88
2023-05-24T09:53:19.326Z,14.78
2023-05-24T09:58:21.880Z,15.08
2023-05-24T10:03:25.343Z,15.01
2023-05-24T10:08:27.986Z,14.68
2023-05-24T10:13:30.339Z,14.79
2023-05-24T10:18:32.364Z,14.51
2023-05-24T10:23:34.908Z,14.80
2023-05-24T10:28:42.743Z,14.25
2023-05-24T10:33:48.359Z,14.52
2023-05-24T10:38:50.454Z,14.62
2023-05-24T10:44:07.824Z,15.77
2023-05-24T10:49:13.809Z,15.72
2023-05-24T10:54:19.210Z,15.68
2023-05-24T10:59:34.685Z,16.57
2023-05-24T11:04:43.393Z,15.95
2023-05-24T11:09:52.629Z,15.03
2023-05-24T11:14:54.383Z,15.73
2023-05-24T11:19:56.817Z,19.10
2023-05-24T11:25:03.345Z,19.94
2023-05-24T11:30:07.312Z,18.85
2023-05-24T11:35:11.578Z,16.71
2023-05-24T11:40:15.105Z,19.48
2023-05-24T11:45:18.911Z,18.44
2023-05-24T11:50:25.338Z,16.81
2023-05-24T11:55:28.473Z,15.43
2023-05-24T12:00:30.667Z,15.94
2023-05-24T12:05:33.303Z,16.82
2023-05-24T12:10:36.764Z,17.92
2023-05-24T12:15:38.506Z,24.18
2023-05-24T12:20:40.301Z,25.92
2023-05-24T12:25:42.221Z,21.49
2023-05-24T12:30:45.050Z,19.85
2023-05-24T12:35:48.651Z,23.66
2023-05-24T12:41:03.873Z,20.23
2023-05-24T12:46:13.258Z,19.75
2023-05-24T12:51:14.969Z,16.63
2023-05-24T12:56:16.719Z,16.44
2023-05-24T13:01:18.390Z,20.20
2023-05-24T13:06:20.366Z,20.32
2023-05-24T13:11:23.094Z,19.06
2023-05-24T13:16:25.806Z,21.06
2023-05-24T13:21:27.908Z,21.31
2023-05-24T13:26:30.932Z,20.27
2023-05-24T13:31:33.151Z,19.59
2023-05-24T13:36:34.993Z,23.37
2023-05-24T13:41:37.171Z,22.04
2023-05-24T13:46:40.295Z,18.99
2023-05-24T13:51:42.204Z,23.62
2023-05-24T13:56:45.019Z,26.10
2023-05-24T14:01:46.860Z,27.09
2023-05-24T14:06:48.571Z,27.14
2023-05-24T14:11:50.456Z,22.55
2023-05-24T14:16:55.033Z,19.98
2023-05-24T14:21:56.852Z,20.54
2023-05-24T14:26:58.496Z,23.49
2023-05-24T14:32:00.319Z,20.05
2023-05-24T14:37:02.126Z,17.52
2023-05-24T14:42:03.922Z,19.00
2023-05-24T14:47:06.064Z,24.83
2023-05-24T14:52:07.720Z,25.78
2023-05-24T14:57:09.479Z,25.84
2023-05-24T15:02:11.191Z,25.60
2023-05-24T15:07:13.051Z,19.68
2023-05-24T15:12:15.045Z,18.51
2023-05-24T15:17:17.552Z,19.53
2023-05-24T15:22:20.654Z,24.85
2023-05-24T15:27:22.450Z,26.76
2023-05-24T15:32:24.355Z,30.76
2023-05-24T15:37:26.481Z,28.67
2023-05-24T15:42:28.231Z,31.44
2023-05-24T15:47:36.257Z,33.11
2023-05-24T15:52:38.102Z,29.72
2023-05-24T15:57:39.760Z,25.25
2023-05-24T16:02:41.571Z,23.00
2023-05-24T16:07:43.288Z,18.62
2023-05-24T16:12:45.003Z,17.72
2023-05-24T16:17:46.863Z,16.82
2023-05-24T16:22:51.422Z,16.35
2023-05-24T16:27:55.502Z,15.88
2023-05-24T16:32:57.259Z,15.61
2023-05-24T16:37:59.123Z,14.85
2023-05-24T16:43:01.017Z,14.35
2023-05-24T16:48:04.663Z,13.96
2023-05-24T16:53:06.862Z,13.87
2023-05-24T16:58:08.643Z,13.42
2023-05-24T17:03:10.510Z,12.83
2023-05-24T17:08:12.249Z,13.34
2023-05-24T17:13:13.933Z,13.03
2023-05-24T17:18:15.671Z,12.94
2023-05-24T17:23:19.134Z,12.45
2023-05-24T17:28:27.396Z,12.25
2023-05-24T17:33:30.936Z,12.09
2023-05-24T17:38:37.685Z,11.92
2023-05-24T17:43:40.490Z,11.78
2023-05-24T17:48:43.520Z,11.62
2023-05-24T17:53:46.443Z,11.16
2023-05-24T17:58:48.555Z,10.97
2023-05-24T18:03:50.257Z,10.77
2023-05-24T18:08:51.910Z,10.77
2023-05-24T18:13:53.663Z,10.67
2023-05-24T18:18:56.131Z,10.48
2023-05-24T18:23:57.866Z,10.31
2023-05-24T18:28:59.530Z,10.25
2023-05-24T18:34:01.925Z,10.15
2023-05-24T18:39:04.295Z,9.96
2023-05-24T18:44:05.969Z,9.92
2023-05-24T18:49:10.939Z,9.88
2023-05-24T18:54:13.787Z,9.65
2023-05-24T18:59:16.824Z,9.40
2023-05-24T19:04:18.554Z,9.16
2023-05-24T19:09:20.445Z,8.83
2023-05-24T19:14:22.387Z,8.55
2023-05-24T19:19:24.373Z,8.26
2023-05-24T19:24:26.139Z,7.96
2023-05-24T19:29:28.276Z,7.84
2023-05-24T19:34:31.924Z,7.70
2023-05-24T19:39:33.629Z,7.47
2023-05-24T19:44:35.319Z,7.33
2023-05-24T19:49:37.108Z,7.17
2023-05-24T19:54:38.836Z,7.04
2023-05-24T19:59:40.583Z,6.86
2023-05-24T20:04:43.786Z,6.82
2023-05-24T20:09:45.508Z,6.75
2023-05-24T20:14:47.239Z,6.63
2023-05-24T20:19:48.889Z,6.46
2023-05-24T20:24:50.688Z,6.34
2023-05-24T20:29:52.355Z,6.31
2023-05-24T20:34:54.035Z,6.21
2023-05-24T20:39:56.048Z,6.25
2023-05-24T20:44:57.971Z,6.09
2023-05-24T20:49:59.681Z,6.00
2023-05-24T20:55:01.601Z,5.84
2023-05-24T21:00:04.187Z,5.79
2023-05-24T21:05:06.626Z,5.71
2023-05-24T21:10:09.366Z,5.73
2023-05-24T21:15:11.212Z,5.69
2023-05-24T21:20:12.960Z,5.56
2023-05-24T21:25:14.828Z,5.48
2023-05-24T21:30:16.581Z,5.43
2023-05-24T21:35:18.253Z,5.46
2023-05-24T21:40:19.928Z,5.28
2023-05-24T21:45:21.785Z,5.19
2023-05-24T21:50:23.529Z,5.14
2023-05-24T21:55:25.509Z,5.08
2023-05-24T22:00:27.502Z,5.03
2023-05-24T22:05:29.151Z,4.89
2023-05-24T22:10:30.800Z,4.81
2023-05-24T22:15:32.453Z,4.76
2023-05-24T22:20:36.477Z,4.71
2023-05-24T22:25:41.815Z,4.60
2023-05-24T22:30:43.608Z,4.52
2023-05-24T22:35:45.685Z,4.46
2023-05-24T22:40:47.386Z,4.30
2023-05-24T22:45:49.075Z,4.20
2023-05-24T22:50:50.773Z,4.15
2023-05-24T22:55:52.492Z,4.10
2023-05-24T23:00:55.313Z,4.13
2023-05-24T23:06:03.649Z,4.13
2023-05-24T23:11:10.556Z,4.09
2023-05-24T23:16:12.593Z,3.99
2023-05-24T23:21:17.045Z,3.94
2023-05-24T23:26:19.174Z,3.88
2023-05-24T23:31:21.007Z,3.82
2023-05-24T23:36:22.705Z,3.77
2023-05-24T23:41:24.369Z,3.74
2023-05-24T23:46:26.062Z,3.68
2023-05-24T23:51:29.972Z,3.60
2023-05-24T23:56:31.602Z,3.58
